This is the latest recevied weather packets stored in our database for station/object KO4ILY. If no packets are shown the sender has not sent any weather packets the latest 10 day(s).
| Time | Temp. | Humidity | Pressure | Rain* | Wind** | Luminosity | Snow |
|---|---|---|---|---|---|---|---|
| 1787965206 | 26.67° C | 74% | 1015 hPa | 0 mm | - | - | - |
| 1787961605 | 28.89° C | 61% | 1014.4 hPa | 0 mm | - | - | - |
| 1787958006 | 31.11° C | 54% | 1014 hPa | 0 mm | - | - | - |
| 1787954405 | 33.33° C | 51% | 1013.7 hPa | 0 mm | - | - | - |
| 1787950805 | 33.33° C | 50% | 1013.9 hPa | 0 mm | - | - | - |
| 1787947205 | 33.33° C | 51% | 1014.1 hPa | 0 mm | - | - | - |
| 1787943606 | 32.22° C | 53% | 1015 hPa | 0 mm | - | - | - |
| 1787940005 | 30° C | 58% | 1015.6 hPa | 0 mm | - | - | - |
| 1787936405 | 30.56° C | 60% | 1015.8 hPa | 0 mm | - | - | - |
| 1787932806 | 28.89° C | 67% | 1016.4 hPa | 0 mm | - | - | - |
| 1787929205 | 26.67° C | 76% | 1016.5 hPa | 0 mm | - | - | - |
| 1787925605 | 24.44° C | 85% | 1016.7 hPa | 4.57 mm | - | - | - |
| 1787922005 | 21.67° C | 96% | 1016.7 hPa | 0 mm | - | - | - |
| 1787918405 | 20° C | 100% | 1016.5 hPa | 0 mm | - | - | - |
| 1787914806 | 20° C | 99% | 1015.9 hPa | 0 mm | - | - | - |
| 1787911205 | 20.56° C | 98% | 1015.4 hPa | 0 mm | - | - | - |
| 1787907605 | 20.56° C | 97% | 1015.2 hPa | 0 mm | - | - | - |
| 1787904005 | 21.11° C | 97% | 1015 hPa | 0 mm | - | - | - |
| 1787900405 | 21.67° C | 95% | 1014.8 hPa | 0 mm | - | - | - |
| 1787896805 | 22.22° C | 92% | 1014.5 hPa | 0 mm | - | - | - |
| 1787893205 | 22.22° C | 90% | 1014.3 hPa | 0 mm | - | - | - |
| 1787889606 | 23.33° C | 87% | 1014.2 hPa | 0 mm | - | - | - |
| 1787886005 | 23.33° C | 84% | 1013.9 hPa | 0 mm | - | - | - |
| 1787882405 | 25° C | 81% | 1013.7 hPa | 0 mm | - | - | - |
| 1787878805 | 26.11° C | 75% | 1012.9 hPa | 0 mm | - | - | - |
* Rain latest hour (hover to see other rain measurements)
** Current wind speed in m/s (hover to see current wind gust speed)